Wausau, FL (32463)

7:22 AM CDT on July 26, 2014 (GMT -0500)
Bob's Backyard Weather (KFLBONIF2) Elev 131 ft | 30.80 °N, 85.70 °W | Change Station

Current weather conditions updated 13 minutes ago

Fog
Fog
75.3 °F
Feels Like 73 °F
N
0.0
Wind Variable Wind from ENE
Gusts 0.0 mph

Today is forecast to be Warmer than yesterday. Thunderstorms developing in the afternoon.

Today
High -- | Low -- °F
--% Chance of Precip.
Yesterday
High -- | Low -- °F
Precip. -- in
5:56 AM 7:40 PM
Waning Crescent, 0% visible
Pressure 29.93 in
Visibility 0.5 miles
Clouds
Heat Index 73 °F
Dew Point 75 °F
Humidity 99%
Rainfall 0.00 in
Snow Depth Not available.
UV Not available.
Pollen 3.50 out of 12
Air Quality Not available.
Flu Activity Not available.
METAR K1J0 261157Z AUTO 00000KT 1/2SM FG VV002 24/24 A3005 RMK AO2 SLP135 60000 70038 T02390239 10239 20228 53016

More Conditions Fewer Conditions

Pressure 29.93 in
Visibility 0.5 miles
Clouds
Heat Index 73 °F
Dew Point 75 °F
Humidity 99%
Rainfall 0.00 in
Snow Depth Not available.
UV Not available.
Pollen 3.50 out of 12
Air Quality Not available.
Flu Activity Not available.
METAR K1J0 261157Z AUTO 00000KT 1/2SM FG VV002 24/24 A3005 RMK AO2 SLP135 60000 70038 T02390239 10239 20228 53016

More Conditions Fewer Conditions

10-Day Weather Forecast

Almanac

Astronomy

Jul. 26, 2014 Rise Set
Actual Time 5:56 AM CDT 7:40 PM CDT
Civil Twilight 5:30 AM CDT 8:07 PM CDT
Nautical Twilight 4:58 AM CDT 8:39 PM CDT
Astronomical Twilight 4:24 AM CDT 9:12 PM CDT
Moon 5:44 AM CDT 7:21 PM CDT
Length of Visible Light 14h 37m
Length of Day
13h 44m
Tomorrow will be 1m 15s shorter.
Waning Crescent, 0% of the Moon is Illuminated
Today
Waning Crescent
Jul 26
New
Aug 3
First Quarter
Aug 10
Full
Aug 17
Last Quarter

Today's Extremes

State Highs State Lows

Community

WunderPhotos

Upload Photos

1,737,553 photos uploaded!

Nearby

Snow Depth

Station Depth Elevation
No new snow has been reported.

Earthquake Activity

City Distance Mag. Time & Date
No recent earthquake activity has been reported nearby.
Minimum magnitude displayed is 2.5.

Coastal Water Temperatures

Place Temperature
Panama City, FL 84.0 °F
Panama City Beach, FL 84.0 °F
Apalachicola, FL 86.0 °F

Nearby Weather Stations

Station Location Temp. Heat Index Dew Point Humidity Wind Precip. Elev Updated Type
Bob's Backyard Weather, Bonifay, FL 75.3 °F 73 °F 75 °F 99% ENE  at  0.0 mph 0.00 in / hr 131 ft 8:09 AM EDT Normal
Southport, Panama City, FL 76.6 °F 77 °F 75 °F 94% WSW  at  0.0 mph 0.00 in / hr 50 ft 7:22 AM CDT Rapid Fire

Show More Stations Show Fewer Stations